sensor_id;sensor_type;location;lat;lon;timestamp;temperature;humidity
39401;DHT22;54391;50.000;7.360;2022-07-06T00:00:34;14.60;39.60
39401;DHT22;54391;50.000;7.360;2022-07-06T00:03:01;14.60;38.00
39401;DHT22;54391;50.000;7.360;2022-07-06T00:05:29;14.60;38.60
39401;DHT22;54391;50.000;7.360;2022-07-06T00:07:56;14.60;38.00
39401;DHT22;54391;50.000;7.360;2022-07-06T00:10:24;14.60;39.30
39401;DHT22;54391;50.000;7.360;2022-07-06T00:12:51;14.40;38.50
39401;DHT22;54391;50.000;7.360;2022-07-06T00:15:20;14.30;40.50
39401;DHT22;54391;50.000;7.360;2022-07-06T00:17:47;14.30;40.20
39401;DHT22;54391;50.000;7.360;2022-07-06T00:20:15;14.20;39.60
39401;DHT22;54391;50.000;7.360;2022-07-06T00:22:42;14.20;40.30
39401;DHT22;54391;50.000;7.360;2022-07-06T00:25:10;14.00;39.90
39401;DHT22;54391;50.000;7.360;2022-07-06T00:27:37;14.00;41.10
39401;DHT22;54391;50.000;7.360;2022-07-06T00:30:06;14.00;42.50
39401;DHT22;54391;50.000;7.360;2022-07-06T00:32:35;14.10;40.50
39401;DHT22;54391;50.000;7.360;2022-07-06T00:35:03;14.10;40.60
39401;DHT22;54391;50.000;7.360;2022-07-06T00:37:31;14.00;41.30
39401;DHT22;54391;50.000;7.360;2022-07-06T00:39:58;14.00;41.00
39401;DHT22;54391;50.000;7.360;2022-07-06T00:42:27;13.90;43.10
39401;DHT22;54391;50.000;7.360;2022-07-06T00:44:55;13.90;41.40
39401;DHT22;54391;50.000;7.360;2022-07-06T00:47:22;13.90;41.30
39401;DHT22;54391;50.000;7.360;2022-07-06T00:49:51;13.80;41.30
39401;DHT22;54391;50.000;7.360;2022-07-06T00:52:36;13.80;42.80
39401;DHT22;54391;50.000;7.360;2022-07-06T00:55:04;13.70;41.20
39401;DHT22;54391;50.000;7.360;2022-07-06T00:57:32;13.70;41.80
39401;DHT22;54391;50.000;7.360;2022-07-06T00:59:59;13.70;44.40
39401;DHT22;54391;50.000;7.360;2022-07-06T01:02:30;13.60;42.80
39401;DHT22;54391;50.000;7.360;2022-07-06T01:04:59;13.60;43.20
39401;DHT22;54391;50.000;7.360;2022-07-06T01:07:28;13.60;43.60
39401;DHT22;54391;50.000;7.360;2022-07-06T01:09:56;13.40;45.50
39401;DHT22;54391;50.000;7.360;2022-07-06T01:12:24;13.30;45.40
39401;DHT22;54391;50.000;7.360;2022-07-06T01:14:53;13.20;48.60
39401;DHT22;54391;50.000;7.360;2022-07-06T01:17:20;13.00;46.90
39401;DHT22;54391;50.000;7.360;2022-07-06T01:19:49;13.00;47.40
39401;DHT22;54391;50.000;7.360;2022-07-06T01:22:18;12.90;49.00
39401;DHT22;54391;50.000;7.360;2022-07-06T01:24:47;15.60;49.90
39401;DHT22;54391;50.000;7.360;2022-07-06T01:29:46;12.90;48.60
39401;DHT22;54391;50.000;7.360;2022-07-06T01:32:14;12.80;49.50
39401;DHT22;54391;50.000;7.360;2022-07-06T01:34:42;12.70;49.70
39401;DHT22;54391;50.000;7.360;2022-07-06T01:37:10;12.60;49.00
39401;DHT22;54391;50.000;7.360;2022-07-06T01:39:39;12.80;51.30
39401;DHT22;54391;50.000;7.360;2022-07-06T01:42:07;12.90;49.80
39401;DHT22;54391;50.000;7.360;2022-07-06T01:44:34;12.90;48.80
39401;DHT22;54391;50.000;7.360;2022-07-06T01:47:02;12.80;48.20
39401;DHT22;54391;50.000;7.360;2022-07-06T01:49:30;12.80;48.80
39401;DHT22;54391;50.000;7.360;2022-07-06T01:51:58;12.70;49.90
39401;DHT22;54391;50.000;7.360;2022-07-06T01:54:26;12.80;48.20
39401;DHT22;54391;50.000;7.360;2022-07-06T01:56:55;12.70;48.00
39401;DHT22;54391;50.000;7.360;2022-07-06T01:59:23;12.60;48.10
39401;DHT22;54391;50.000;7.360;2022-07-06T02:01:50;12.80;48.10
39401;DHT22;54391;50.000;7.360;2022-07-06T02:04:20;12.70;48.10
39401;DHT22;54391;50.000;7.360;2022-07-06T02:06:48;12.50;48.80
39401;DHT22;54391;50.000;7.360;2022-07-06T02:09:15;12.50;47.70
39401;DHT22;54391;50.000;7.360;2022-07-06T02:11:43;12.50;47.80
39401;DHT22;54391;50.000;7.360;2022-07-06T02:14:13;12.50;47.40
39401;DHT22;54391;50.000;7.360;2022-07-06T02:16:40;12.50;47.20
39401;DHT22;54391;50.000;7.360;2022-07-06T02:19:08;12.50;47.20
39401;DHT22;54391;50.000;7.360;2022-07-06T02:21:36;12.40;47.50
39401;DHT22;54391;50.000;7.360;2022-07-06T02:24:04;12.40;47.30
39401;DHT22;54391;50.000;7.360;2022-07-06T02:26:32;12.40;46.20
39401;DHT22;54391;50.000;7.360;2022-07-06T02:29:00;12.40;48.50
39401;DHT22;54391;50.000;7.360;2022-07-06T02:31:30;12.40;47.30
39401;DHT22;54391;50.000;7.360;2022-07-06T02:33:58;12.40;46.60
39401;DHT22;54391;50.000;7.360;2022-07-06T02:36:26;12.50;47.80
39401;DHT22;54391;50.000;7.360;2022-07-06T02:38:54;12.70;47.10
39401;DHT22;54391;50.000;7.360;2022-07-06T02:41:21;12.60;48.10
39401;DHT22;54391;50.000;7.360;2022-07-06T02:43:49;12.80;46.70
39401;DHT22;54391;50.000;7.360;2022-07-06T02:46:16;12.80;43.20
39401;DHT22;54391;50.000;7.360;2022-07-06T02:48:47;12.70;46.80
39401;DHT22;54391;50.000;7.360;2022-07-06T02:51:14;16.40;48.30
39401;DHT22;54391;50.000;7.360;2022-07-06T02:53:42;12.80;46.00
39401;DHT22;54391;50.000;7.360;2022-07-06T02:56:10;12.40;44.10
39401;DHT22;54391;50.000;7.360;2022-07-06T02:58:40;12.30;46.60
39401;DHT22;54391;50.000;7.360;2022-07-06T03:01:08;12.60;46.60
39401;DHT22;54391;50.000;7.360;2022-07-06T03:03:36;12.60;48.60
39401;DHT22;54391;50.000;7.360;2022-07-06T03:06:06;12.20;44.90
39401;DHT22;54391;50.000;7.360;2022-07-06T03:08:34;11.90;48.10
39401;DHT22;54391;50.000;7.360;2022-07-06T03:11:01;11.90;49.60
39401;DHT22;54391;50.000;7.360;2022-07-06T03:13:29;11.90;48.40
39401;DHT22;54391;50.000;7.360;2022-07-06T03:15:57;12.00;49.10
39401;DHT22;54391;50.000;7.360;2022-07-06T03:18:25;12.10;49.70
39401;DHT22;54391;50.000;7.360;2022-07-06T03:20:52;12.00;47.10
39401;DHT22;54391;50.000;7.360;2022-07-06T03:23:22;11.90;46.30
39401;DHT22;54391;50.000;7.360;2022-07-06T03:25:50;11.80;50.40
39401;DHT22;54391;50.000;7.360;2022-07-06T03:28:18;11.90;51.60
39401;DHT22;54391;50.000;7.360;2022-07-06T03:30:46;11.90;45.10
39401;DHT22;54391;50.000;7.360;2022-07-06T03:33:14;12.00;45.80
39401;DHT22;54391;50.000;7.360;2022-07-06T03:35:41;12.00;46.10
39401;DHT22;54391;50.000;7.360;2022-07-06T03:38:11;12.10;46.60
39401;DHT22;54391;50.000;7.360;2022-07-06T03:40:42;12.10;45.80
39401;DHT22;54391;50.000;7.360;2022-07-06T03:43:10;12.00;45.10
39401;DHT22;54391;50.000;7.360;2022-07-06T03:45:39;11.90;46.30
39401;DHT22;54391;50.000;7.360;2022-07-06T03:48:07;10.90;43.90
39401;DHT22;54391;50.000;7.360;2022-07-06T03:50:37;11.90;44.20
39401;DHT22;54391;50.000;7.360;2022-07-06T03:53:05;11.70;49.70
39401;DHT22;54391;50.000;7.360;2022-07-06T03:55:33;11.80;47.40
39401;DHT22;54391;50.000;7.360;2022-07-06T03:58:06;11.80;47.60
39401;DHT22;54391;50.000;7.360;2022-07-06T04:00:37;11.90;47.40
39401;DHT22;54391;50.000;7.360;2022-07-06T04:03:09;11.90;46.30
39401;DHT22;54391;50.000;7.360;2022-07-06T04:05:45;11.90;45.70
39401;DHT22;54391;50.000;7.360;2022-07-06T04:08:12;11.90;45.90
39401;DHT22;54391;50.000;7.360;2022-07-06T04:10:46;11.80;46.70
39401;DHT22;54391;50.000;7.360;2022-07-06T04:13:15;12.00;48.30
39401;DHT22;54391;50.000;7.360;2022-07-06T04:15:43;11.90;47.20
39401;DHT22;54391;50.000;7.360;2022-07-06T04:18:12;11.80;45.60
39401;DHT22;54391;50.000;7.360;2022-07-06T04:20:47;11.50;48.70
39401;DHT22;54391;50.000;7.360;2022-07-06T04:23:15;11.70;50.10
39401;DHT22;54391;50.000;7.360;2022-07-06T04:25:43;11.70;44.10
39401;DHT22;54391;50.000;7.360;2022-07-06T04:28:11;11.60;47.90
39401;DHT22;54391;50.000;7.360;2022-07-06T04:30:40;11.80;46.60
39401;DHT22;54391;50.000;7.360;2022-07-06T04:33:12;11.90;46.00
39401;DHT22;54391;50.000;7.360;2022-07-06T04:35:42;11.80;46.30
39401;DHT22;54391;50.000;7.360;2022-07-06T04:38:10;11.70;44.70
39401;DHT22;54391;50.000;7.360;2022-07-06T04:40:38;11.70;46.40
39401;DHT22;54391;50.000;7.360;2022-07-06T04:43:10;11.70;47.60
39401;DHT22;54391;50.000;7.360;2022-07-06T04:45:37;11.30;48.60
39401;DHT22;54391;50.000;7.360;2022-07-06T04:48:06;11.30;47.80
39401;DHT22;54391;50.000;7.360;2022-07-06T04:50:36;11.40;51.20
39401;DHT22;54391;50.000;7.360;2022-07-06T04:53:06;11.40;51.00
39401;DHT22;54391;50.000;7.360;2022-07-06T04:55:34;11.70;48.30
39401;DHT22;54391;50.000;7.360;2022-07-06T04:58:02;11.80;46.70
39401;DHT22;54391;50.000;7.360;2022-07-06T05:00:31;11.70;45.90
39401;DHT22;54391;50.000;7.360;2022-07-06T05:02:58;11.70;46.90
39401;DHT22;54391;50.000;7.360;2022-07-06T05:05:29;12.20;43.70
39401;DHT22;54391;50.000;7.360;2022-07-06T05:07:57;12.30;42.50
39401;DHT22;54391;50.000;7.360;2022-07-06T05:10:25;12.30;42.60
39401;DHT22;54391;50.000;7.360;2022-07-06T05:12:55;12.30;40.90
39401;DHT22;54391;50.000;7.360;2022-07-06T05:15:23;12.70;43.30
39401;DHT22;54391;50.000;7.360;2022-07-06T05:17:51;12.90;43.20
39401;DHT22;54391;50.000;7.360;2022-07-06T05:20:19;13.10;42.10
39401;DHT22;54391;50.000;7.360;2022-07-06T05:22:49;13.60;35.70
39401;DHT22;54391;50.000;7.360;2022-07-06T05:25:21;13.30;39.70
39401;DHT22;54391;50.000;7.360;2022-07-06T05:27:49;13.50;38.40
39401;DHT22;54391;50.000;7.360;2022-07-06T05:30:17;13.80;35.40
39401;DHT22;54391;50.000;7.360;2022-07-06T05:32:45;14.10;33.70
39401;DHT22;54391;50.000;7.360;2022-07-06T05:35:13;13.40;33.10
39401;DHT22;54391;50.000;7.360;2022-07-06T05:37:40;13.60;36.10
39401;DHT22;54391;50.000;7.360;2022-07-06T05:40:11;13.90;33.20
39401;DHT22;54391;50.000;7.360;2022-07-06T05:42:39;14.10;31.20
39401;DHT22;54391;50.000;7.360;2022-07-06T05:45:08;14.70;26.80
39401;DHT22;54391;50.000;7.360;2022-07-06T05:47:35;14.80;27.20
39401;DHT22;54391;50.000;7.360;2022-07-06T05:50:20;15.10;28.70
39401;DHT22;54391;50.000;7.360;2022-07-06T05:52:57;14.80;25.50
39401;DHT22;54391;50.000;7.360;2022-07-06T05:55:26;15.10;25.60
39401;DHT22;54391;50.000;7.360;2022-07-06T05:57:55;15.20;26.00
39401;DHT22;54391;50.000;7.360;2022-07-06T06:00:26;15.40;22.20
39401;DHT22;54391;50.000;7.360;2022-07-06T06:02:58;15.80;23.30
39401;DHT22;54391;50.000;7.360;2022-07-06T06:05:26;15.60;19.70
39401;DHT22;54391;50.000;7.360;2022-07-06T06:07:58;15.50;20.20
39401;DHT22;54391;50.000;7.360;2022-07-06T06:10:30;15.80;21.40
39401;DHT22;54391;50.000;7.360;2022-07-06T06:13:01;15.80;20.90
39401;DHT22;54391;50.000;7.360;2022-07-06T06:15:29;15.90;20.40
39401;DHT22;54391;50.000;7.360;2022-07-06T06:17:58;16.20;19.50
39401;DHT22;54391;50.000;7.360;2022-07-06T06:20:25;16.40;17.80
39401;DHT22;54391;50.000;7.360;2022-07-06T06:22:54;15.70;18.80
39401;DHT22;54391;50.000;7.360;2022-07-06T06:25:28;16.30;18.40
39401;DHT22;54391;50.000;7.360;2022-07-06T06:27:57;16.30;17.90
39401;DHT22;54391;50.000;7.360;2022-07-06T06:30:24;15.80;19.00
39401;DHT22;54391;50.000;7.360;2022-07-06T06:32:52;16.40;17.70
39401;DHT22;54391;50.000;7.360;2022-07-06T06:35:30;17.30;13.60
39401;DHT22;54391;50.000;7.360;2022-07-06T06:37:57;17.40;13.90
39401;DHT22;54391;50.000;7.360;2022-07-06T06:40:25;17.00;14.70
39401;DHT22;54391;50.000;7.360;2022-07-06T06:42:52;17.10;14.20
39401;DHT22;54391;50.000;7.360;2022-07-06T06:45:21;15.30;18.50
39401;DHT22;54391;50.000;7.360;2022-07-06T06:47:49;15.30;18.80
39401;DHT22;54391;50.000;7.360;2022-07-06T06:50:16;15.10;19.60
39401;DHT22;54391;50.000;7.360;2022-07-06T06:52:44;14.50;21.00
39401;DHT22;54391;50.000;7.360;2022-07-06T06:55:11;14.20;21.00
39401;DHT22;54391;50.000;7.360;2022-07-06T06:57:38;14.60;21.90
39401;DHT22;54391;50.000;7.360;2022-07-06T07:00:07;15.10;20.20
39401;DHT22;54391;50.000;7.360;2022-07-06T07:02:36;15.20;20.30
39401;DHT22;54391;50.000;7.360;2022-07-06T07:05:05;14.70;20.20
39401;DHT22;54391;50.000;7.360;2022-07-06T07:07:34;14.00;21.50
39401;DHT22;54391;50.000;7.360;2022-07-06T07:10:03;14.40;23.20
39401;DHT22;54391;50.000;7.360;2022-07-06T07:12:31;14.50;22.60
39401;DHT22;54391;50.000;7.360;2022-07-06T07:14:59;14.60;21.00
39401;DHT22;54391;50.000;7.360;2022-07-06T07:17:27;14.60;21.60
39401;DHT22;54391;50.000;7.360;2022-07-06T07:19:56;15.10;21.30
39401;DHT22;54391;50.000;7.360;2022-07-06T07:22:24;15.20;20.80
39401;DHT22;54391;50.000;7.360;2022-07-06T07:24:51;16.50;17.00
39401;DHT22;54391;50.000;7.360;2022-07-06T07:27:19;18.20;12.30
39401;DHT22;54391;50.000;7.360;2022-07-06T07:29:46;19.50;9.00
39401;DHT22;54391;50.000;7.360;2022-07-06T07:32:17;20.10;7.70
39401;DHT22;54391;50.000;7.360;2022-07-06T07:34:44;19.50;7.50
39401;DHT22;54391;50.000;7.360;2022-07-06T07:37:13;18.40;8.30
39401;DHT22;54391;50.000;7.360;2022-07-06T07:39:40;17.70;10.50
39401;DHT22;54391;50.000;7.360;2022-07-06T07:42:08;17.00;12.10
39401;DHT22;54391;50.000;7.360;2022-07-06T07:44:35;17.90;11.20
39401;DHT22;54391;50.000;7.360;2022-07-06T07:47:04;17.20;12.50
39401;DHT22;54391;50.000;7.360;2022-07-06T07:49:32;17.10;13.00
39401;DHT22;54391;50.000;7.360;2022-07-06T07:51:59;16.60;14.80
39401;DHT22;54391;50.000;7.360;2022-07-06T07:54:31;16.50;14.50
39401;DHT22;54391;50.000;7.360;2022-07-06T07:56:58;15.80;15.60
39401;DHT22;54391;50.000;7.360;2022-07-06T07:59:28;15.70;17.10
39401;DHT22;54391;50.000;7.360;2022-07-06T08:01:55;16.30;15.50
39401;DHT22;54391;50.000;7.360;2022-07-06T08:04:23;18.00;11.50
39401;DHT22;54391;50.000;7.360;2022-07-06T08:06:50;17.80;8.80
39401;DHT22;54391;50.000;7.360;2022-07-06T08:09:18;17.80;8.40
39401;DHT22;54391;50.000;7.360;2022-07-06T08:11:47;18.60;6.30
39401;DHT22;54391;50.000;7.360;2022-07-06T08:14:14;19.40;6.80
39401;DHT22;54391;50.000;7.360;2022-07-06T08:16:42;19.90;3.50
39401;DHT22;54391;50.000;7.360;2022-07-06T08:19:10;19.70;4.50
39401;DHT22;54391;50.000;7.360;2022-07-06T08:21:41;19.70;5.20
39401;DHT22;54391;50.000;7.360;2022-07-06T08:24:09;20.40;2.90
39401;DHT22;54391;50.000;7.360;2022-07-06T08:26:36;21.10;2.60
39401;DHT22;54391;50.000;7.360;2022-07-06T08:29:05;21.70;2.20
39401;DHT22;54391;50.000;7.360;2022-07-06T08:31:33;21.80;1.60
39401;DHT22;54391;50.000;7.360;2022-07-06T08:34:01;22.00;1.60
39401;DHT22;54391;50.000;7.360;2022-07-06T08:36:28;21.50;1.00
39401;DHT22;54391;50.000;7.360;2022-07-06T08:38:56;21.00;2.90
39401;DHT22;54391;50.000;7.360;2022-07-06T08:41:25;19.90;2.00
39401;DHT22;54391;50.000;7.360;2022-07-06T08:43:53;19.90;3.40
39401;DHT22;54391;50.000;7.360;2022-07-06T08:46:22;19.40;3.70
39401;DHT22;54391;50.000;7.360;2022-07-06T08:48:50;19.30;5.40
39401;DHT22;54391;50.000;7.360;2022-07-06T08:51:20;19.50;4.50
39401;DHT22;54391;50.000;7.360;2022-07-06T08:53:50;19.10;5.20
39401;DHT22;54391;50.000;7.360;2022-07-06T08:56:18;18.00;6.40
39401;DHT22;54391;50.000;7.360;2022-07-06T08:58:46;18.90;6.40
39401;DHT22;54391;50.000;7.360;2022-07-06T09:01:14;18.90;6.40
39401;DHT22;54391;50.000;7.360;2022-07-06T09:03:45;19.50;4.30
39401;DHT22;54391;50.000;7.360;2022-07-06T09:06:16;20.10;2.80
39401;DHT22;54391;50.000;7.360;2022-07-06T09:08:48;20.70;2.80
39401;DHT22;54391;50.000;7.360;2022-07-06T09:11:16;21.70;2.10
39401;DHT22;54391;50.000;7.360;2022-07-06T09:13:44;21.50;1.40
39401;DHT22;54391;50.000;7.360;2022-07-06T09:16:13;21.40;1.00
39401;DHT22;54391;50.000;7.360;2022-07-06T09:18:45;21.70;1.00
39401;DHT22;54391;50.000;7.360;2022-07-06T09:21:22;21.90;1.00
39401;DHT22;54391;50.000;7.360;2022-07-06T09:23:53;21.40;1.00
39401;DHT22;54391;50.000;7.360;2022-07-06T09:26:21;20.30;1.10
39401;DHT22;54391;50.000;7.360;2022-07-06T09:28:49;20.80;1.00
39401;DHT22;54391;50.000;7.360;2022-07-06T09:31:17;21.50;1.00
39401;DHT22;54391;50.000;7.360;2022-07-06T09:33:57;22.00;1.00
39401;DHT22;54391;50.000;7.360;2022-07-06T09:36:42;22.50;1.00
39401;DHT22;54391;50.000;7.360;2022-07-06T09:39:21;21.50;1.00
39401;DHT22;54391;50.000;7.360;2022-07-06T09:41:50;21.80;1.00
39401;DHT22;54391;50.000;7.360;2022-07-06T09:44:22;21.60;1.00
39401;DHT22;54391;50.000;7.360;2022-07-06T09:46:51;22.60;1.00
39401;DHT22;54391;50.000;7.360;2022-07-06T09:49:21;22.60;1.00
39401;DHT22;54391;50.000;7.360;2022-07-06T09:51:51;22.90;1.00
39401;DHT22;54391;50.000;7.360;2022-07-06T09:54:19;22.20;1.00
39401;DHT22;54391;50.000;7.360;2022-07-06T09:56:47;21.60;1.00
39401;DHT22;54391;50.000;7.360;2022-07-06T09:59:18;22.00;1.00
39401;DHT22;54391;50.000;7.360;2022-07-06T10:01:48;22.00;1.00
39401;DHT22;54391;50.000;7.360;2022-07-06T10:04:17;22.90;1.00
39401;DHT22;54391;50.000;7.360;2022-07-06T10:06:48;22.30;1.00
39401;DHT22;54391;50.000;7.360;2022-07-06T10:09:16;22.30;1.00
39401;DHT22;54391;50.000;7.360;2022-07-06T10:11:49;22.80;1.00
39401;DHT22;54391;50.000;7.360;2022-07-06T10:14:19;21.70;1.00
39401;DHT22;54391;50.000;7.360;2022-07-06T10:16:47;20.50;1.00
39401;DHT22;54391;50.000;7.360;2022-07-06T10:19:16;20.40;1.90
39401;DHT22;54391;50.000;7.360;2022-07-06T10:21:46;21.50;1.20
39401;DHT22;54391;50.000;7.360;2022-07-06T10:24:14;21.50;1.00
39401;DHT22;54391;50.000;7.360;2022-07-06T10:26:42;21.10;1.00
39401;DHT22;54391;50.000;7.360;2022-07-06T10:29:10;21.70;1.00
39401;DHT22;54391;50.000;7.360;2022-07-06T10:31:39;21.70;1.00
39401;DHT22;54391;50.000;7.360;2022-07-06T10:34:11;21.40;1.00
39401;DHT22;54391;50.000;7.360;2022-07-06T10:36:40;22.70;1.00
39401;DHT22;54391;50.000;7.360;2022-07-06T10:39:10;23.10;1.00
39401;DHT22;54391;50.000;7.360;2022-07-06T10:41:56;23.00;1.00
39401;DHT22;54391;50.000;7.360;2022-07-06T10:44:24;21.60;1.00
39401;DHT22;54391;50.000;7.360;2022-07-06T10:46:53;22.10;1.00
39401;DHT22;54391;50.000;7.360;2022-07-06T10:49:21;22.30;1.00
39401;DHT22;54391;50.000;7.360;2022-07-06T10:51:49;22.00;1.00
39401;DHT22;54391;50.000;7.360;2022-07-06T10:54:19;22.00;1.00
39401;DHT22;54391;50.000;7.360;2022-07-06T10:56:48;21.30;1.00
39401;DHT22;54391;50.000;7.360;2022-07-06T10:59:17;21.70;1.00
39401;DHT22;54391;50.000;7.360;2022-07-06T11:04:49;22.30;1.00
39401;DHT22;54391;50.000;7.360;2022-07-06T11:07:18;22.50;1.00
39401;DHT22;54391;50.000;7.360;2022-07-06T11:09:54;22.00;1.00
39401;DHT22;54391;50.000;7.360;2022-07-06T11:12:22;21.50;1.00
39401;DHT22;54391;50.000;7.360;2022-07-06T11:14:51;22.10;1.00
39401;DHT22;54391;50.000;7.360;2022-07-06T11:17:19;22.10;1.00
39401;DHT22;54391;50.000;7.360;2022-07-06T11:19:51;22.20;1.00
39401;DHT22;54391;50.000;7.360;2022-07-06T11:22:22;22.50;1.00
39401;DHT22;54391;50.000;7.360;2022-07-06T11:24:52;22.20;1.00
39401;DHT22;54391;50.000;7.360;2022-07-06T11:27:23;21.50;1.00
39401;DHT22;54391;50.000;7.360;2022-07-06T11:29:50;20.30;1.00
39401;DHT22;54391;50.000;7.360;2022-07-06T11:32:23;20.30;1.00
39401;DHT22;54391;50.000;7.360;2022-07-06T11:34:52;21.00;1.00
39401;DHT22;54391;50.000;7.360;2022-07-06T11:37:20;21.70;1.00
39401;DHT22;54391;50.000;7.360;2022-07-06T11:39:50;22.40;1.00
39401;DHT22;54391;50.000;7.360;2022-07-06T11:42:18;22.60;1.00
39401;DHT22;54391;50.000;7.360;2022-07-06T11:44:46;22.00;1.00
39401;DHT22;54391;50.000;7.360;2022-07-06T11:47:16;21.40;1.00
39401;DHT22;54391;50.000;7.360;2022-07-06T11:49:49;20.50;1.00
39401;DHT22;54391;50.000;7.360;2022-07-06T11:52:18;20.70;1.00
39401;DHT22;54391;50.000;7.360;2022-07-06T11:54:45;20.70;1.00
39401;DHT22;54391;50.000;7.360;2022-07-06T11:57:15;21.20;1.00
39401;DHT22;54391;50.000;7.360;2022-07-06T11:59:43;21.20;1.00
39401;DHT22;54391;50.000;7.360;2022-07-06T12:02:15;21.30;1.00
39401;DHT22;54391;50.000;7.360;2022-07-06T12:04:43;20.90;1.00
39401;DHT22;54391;50.000;7.360;2022-07-06T12:07:12;21.20;1.00
39401;DHT22;54391;50.000;7.360;2022-07-06T12:09:41;21.60;1.00
39401;DHT22;54391;50.000;7.360;2022-07-06T12:12:10;21.40;1.00
39401;DHT22;54391;50.000;7.360;2022-07-06T12:14:40;21.50;1.00
39401;DHT22;54391;50.000;7.360;2022-07-06T12:17:08;21.50;1.00
39401;DHT22;54391;50.000;7.360;2022-07-06T12:19:37;21.60;1.00
39401;DHT22;54391;50.000;7.360;2022-07-06T12:22:05;21.60;1.00
39401;DHT22;54391;50.000;7.360;2022-07-06T12:24:35;21.40;1.00
39401;DHT22;54391;50.000;7.360;2022-07-06T12:27:11;21.20;1.00
39401;DHT22;54391;50.000;7.360;2022-07-06T12:29:40;21.40;1.00
39401;DHT22;54391;50.000;7.360;2022-07-06T12:32:14;21.50;1.00
39401;DHT22;54391;50.000;7.360;2022-07-06T12:34:42;21.40;1.00
39401;DHT22;54391;50.000;7.360;2022-07-06T12:37:10;21.10;1.00
39401;DHT22;54391;50.000;7.360;2022-07-06T12:39:41;20.40;1.00
39401;DHT22;54391;50.000;7.360;2022-07-06T12:42:09;20.50;1.00
39401;DHT22;54391;50.000;7.360;2022-07-06T12:44:44;20.70;1.00
39401;DHT22;54391;50.000;7.360;2022-07-06T12:47:12;20.90;1.00
39401;DHT22;54391;50.000;7.360;2022-07-06T12:49:40;20.70;1.00
39401;DHT22;54391;50.000;7.360;2022-07-06T12:52:10;20.40;1.00
39401;DHT22;54391;50.000;7.360;2022-07-06T12:54:42;20.50;1.00
39401;DHT22;54391;50.000;7.360;2022-07-06T12:57:11;20.80;1.00
39401;DHT22;54391;50.000;7.360;2022-07-06T12:59:43;21.00;1.00
39401;DHT22;54391;50.000;7.360;2022-07-06T13:02:19;21.20;1.00
39401;DHT22;54391;50.000;7.360;2022-07-06T13:04:58;21.30;1.00
39401;DHT22;54391;50.000;7.360;2022-07-06T13:07:30;21.50;1.00
39401;DHT22;54391;50.000;7.360;2022-07-06T13:09:58;21.70;1.00
39401;DHT22;54391;50.000;7.360;2022-07-06T13:12:25;21.70;1.00
39401;DHT22;54391;50.000;7.360;2022-07-06T13:14:54;21.20;1.00
39401;DHT22;54391;50.000;7.360;2022-07-06T13:17:22;20.80;1.00
39401;DHT22;54391;50.000;7.360;2022-07-06T13:19:49;20.50;1.00
39401;DHT22;54391;50.000;7.360;2022-07-06T13:22:17;20.60;1.00
39401;DHT22;54391;50.000;7.360;2022-07-06T13:24:45;21.00;1.00
39401;DHT22;54391;50.000;7.360;2022-07-06T13:27:12;20.90;1.00
39401;DHT22;54391;50.000;7.360;2022-07-06T13:29:40;20.90;1.00
39401;DHT22;54391;50.000;7.360;2022-07-06T13:32:09;20.90;1.00
39401;DHT22;54391;50.000;7.360;2022-07-06T13:34:36;20.40;1.00
39401;DHT22;54391;50.000;7.360;2022-07-06T13:37:04;20.60;1.00
39401;DHT22;54391;50.000;7.360;2022-07-06T13:39:32;20.60;1.00
39401;DHT22;54391;50.000;7.360;2022-07-06T13:42:00;20.60;1.00
39401;DHT22;54391;50.000;7.360;2022-07-06T13:44:29;20.60;1.00
39401;DHT22;54391;50.000;7.360;2022-07-06T13:46:56;20.30;1.00
39401;DHT22;54391;50.000;7.360;2022-07-06T13:49:25;20.20;1.00
39401;DHT22;54391;50.000;7.360;2022-07-06T13:51:52;20.10;1.00
39401;DHT22;54391;50.000;7.360;2022-07-06T13:54:21;20.00;1.00
39401;DHT22;54391;50.000;7.360;2022-07-06T13:56:49;20.40;1.00
39401;DHT22;54391;50.000;7.360;2022-07-06T13:59:17;20.30;1.00
39401;DHT22;54391;50.000;7.360;2022-07-06T14:01:44;20.10;1.00
39401;DHT22;54391;50.000;7.360;2022-07-06T14:04:12;20.00;1.00
39401;DHT22;54391;50.000;7.360;2022-07-06T14:06:41;19.90;1.00
39401;DHT22;54391;50.000;7.360;2022-07-06T14:11:36;20.00;1.00
39401;DHT22;54391;50.000;7.360;2022-07-06T14:14:04;19.90;1.50
39401;DHT22;54391;50.000;7.360;2022-07-06T14:16:33;19.80;1.50
39401;DHT22;54391;50.000;7.360;2022-07-06T14:19:01;19.90;1.90
39401;DHT22;54391;50.000;7.360;2022-07-06T14:21:29;19.90;2.50
39401;DHT22;54391;50.000;7.360;2022-07-06T14:23:58;19.80;1.80
39401;DHT22;54391;50.000;7.360;2022-07-06T14:26:25;20.10;2.30
39401;DHT22;54391;50.000;7.360;2022-07-06T14:28:53;20.10;3.30
39401;DHT22;54391;50.000;7.360;2022-07-06T14:31:20;20.10;3.50
39401;DHT22;54391;50.000;7.360;2022-07-06T14:33:48;20.10;4.20
39401;DHT22;54391;50.000;7.360;2022-07-06T14:36:16;20.50;1.40
39401;DHT22;54391;50.000;7.360;2022-07-06T14:38:44;20.40;1.50
39401;DHT22;54391;50.000;7.360;2022-07-06T14:41:13;20.60;1.90
39401;DHT22;54391;50.000;7.360;2022-07-06T14:43:41;20.50;2.00
39401;DHT22;54391;50.000;7.360;2022-07-06T14:46:08;20.40;1.00
39401;DHT22;54391;50.000;7.360;2022-07-06T14:48:36;20.40;1.60
39401;DHT22;54391;50.000;7.360;2022-07-06T14:51:03;20.50;3.60
39401;DHT22;54391;50.000;7.360;2022-07-06T14:53:31;20.40;2.00
39401;DHT22;54391;50.000;7.360;2022-07-06T14:55:59;20.30;2.10
39401;DHT22;54391;50.000;7.360;2022-07-06T14:58:28;20.30;2.20
39401;DHT22;54391;50.000;7.360;2022-07-06T15:00:55;20.20;2.90
39401;DHT22;54391;50.000;7.360;2022-07-06T15:03:23;20.00;2.50
39401;DHT22;54391;50.000;7.360;2022-07-06T15:05:50;19.90;3.00
39401;DHT22;54391;50.000;7.360;2022-07-06T15:08:18;19.90;3.00
39401;DHT22;54391;50.000;7.360;2022-07-06T15:10:45;20.00;2.40
39401;DHT22;54391;50.000;7.360;2022-07-06T15:13:13;20.00;2.20
39401;DHT22;54391;50.000;7.360;2022-07-06T15:15:42;20.00;2.60
39401;DHT22;54391;50.000;7.360;2022-07-06T15:18:09;20.10;3.60
39401;DHT22;54391;50.000;7.360;2022-07-06T15:20:37;20.00;2.90
39401;DHT22;54391;50.000;7.360;2022-07-06T15:23:04;20.00;2.50
39401;DHT22;54391;50.000;7.360;2022-07-06T15:25:32;20.10;2.80
39401;DHT22;54391;50.000;7.360;2022-07-06T15:27:59;20.20;3.20
39401;DHT22;54391;50.000;7.360;2022-07-06T15:30:27;20.40;1.60
39401;DHT22;54391;50.000;7.360;2022-07-06T15:32:59;20.60;1.40
39401;DHT22;54391;50.000;7.360;2022-07-06T15:35:29;20.70;1.00
39401;DHT22;54391;50.000;7.360;2022-07-06T15:37:57;20.60;1.00
39401;DHT22;54391;50.000;7.360;2022-07-06T15:40:24;20.80;1.00
39401;DHT22;54391;50.000;7.360;2022-07-06T15:42:53;20.80;1.60
39401;DHT22;54391;50.000;7.360;2022-07-06T15:45:22;20.40;1.10
39401;DHT22;54391;50.000;7.360;2022-07-06T15:47:51;20.20;1.60
39401;DHT22;54391;50.000;7.360;2022-07-06T15:50:20;20.20;2.00
39401;DHT22;54391;50.000;7.360;2022-07-06T15:52:48;19.90;2.30
39401;DHT22;54391;50.000;7.360;2022-07-06T15:55:16;20.00;2.20